GLO1346 SBSP-SBVT
Flight info
| Callsign | GLO1346 |
|---|---|
| Flight time | 1h 4m |
| Altitude | 39000 |
| Route | UREMI UZ42 CXI DCT SEGLI DCT TODET |
| Aircraft | B737/M-SDFGIKLORWXY/LB1 |
Departure
| Time | 2026-05-08 22:03 |
|---|---|
| Airport | Congonhas–Deputado Freitas Nobre Airport (SBSP) |
Arrival
| Time | 2026-05-08 23:07 |
|---|---|
| Airport | Eurico de Aguiar Salles International Airport (SBVT) |
| Time | Latitude | Longitude | Altitude | Speed | Heading |
|---|---|---|---|---|---|
| 2026-05-08 21:52 | -23.62421 | -46.66028 | 2599 ft | 0 kts | 237° |
| 2026-05-08 21:53 | -23.62418 | -46.66023 | 2599 ft | 4 kts | 237° |
| 2026-05-08 21:53 | -23.62403 | -46.66000 | 2599 ft | 4 kts | 217° |
| 2026-05-08 21:53 | -23.62387 | -46.65996 | 2599 ft | 3 kts | 147° |
| 2026-05-08 21:54 | -23.62381 | -46.66000 | 2599 ft | 0 kts | 147° |
| 2026-05-08 21:56 | -23.62384 | -46.65998 | 2599 ft | 1 kts | 147° |
| 2026-05-08 21:56 | -23.62410 | -46.65978 | 2599 ft | 10 kts | 137° |
| 2026-05-08 21:57 | -23.62444 | -46.65914 | 2600 ft | 10 kts | 129° |
| 2026-05-08 21:57 | -23.62501 | -46.65871 | 2600 ft | 13 kts | 149° |
| 2026-05-08 21:57 | -23.62580 | -46.65814 | 2601 ft | 14 kts | 147° |
| 2026-05-08 21:57 | -23.62659 | -46.65759 | 2601 ft | 13 kts | 147° |
| 2026-05-08 21:58 | -23.62737 | -46.65705 | 2601 ft | 14 kts | 147° |
| 2026-05-08 21:58 | -23.62824 | -46.65644 | 2597 ft | 16 kts | 148° |
| 2026-05-08 21:58 | -23.62923 | -46.65576 | 2609 ft | 18 kts | 147° |
| 2026-05-08 21:58 | -23.63038 | -46.65521 | 2609 ft | 19 kts | 176° |
| 2026-05-08 21:59 | -23.63053 | -46.65519 | 2608 ft | 0 kts | 168° |
| 2026-05-08 22:00 | -23.63055 | -46.65519 | 2608 ft | 3 kts | 167° |
| 2026-05-08 22:00 | -23.63112 | -46.65484 | 2608 ft | 14 kts | 147° |
| 2026-05-08 22:00 | -23.63196 | -46.65424 | 2608 ft | 15 kts | 146° |
| 2026-05-08 22:01 | -23.63289 | -46.65361 | 2608 ft | 17 kts | 149° |
| 2026-05-08 22:01 | -23.63378 | -46.65299 | 2608 ft | 11 kts | 146° |
| 2026-05-08 22:01 | -23.63429 | -46.65242 | 2608 ft | 11 kts | 98° |
| 2026-05-08 22:01 | -23.63398 | -46.65171 | 2611 ft | 10 kts | 65° |
| 2026-05-08 22:02 | -23.63426 | -46.65106 | 2607 ft | 2 kts | 167° |
| 2026-05-08 22:02 | -23.63423 | -46.65117 | 2607 ft | 2 kts | 313° |
| 2026-05-08 22:02 | -23.63350 | -46.65174 | 2613 ft | 48 kts | 326° |
| 2026-05-08 22:02 | -23.62824 | -46.65537 | 2614 ft | 126 kts | 328° |
| 2026-05-08 22:03 | -23.61926 | -46.66164 | 2861 ft | 164 kts | 329° |
| 2026-05-08 22:03 | -23.61012 | -46.66765 | 3962 ft | 145 kts | 332° |
| 2026-05-08 22:03 | -23.59936 | -46.66864 | 4416 ft | 180 kts | 17° |
| 2026-05-08 22:03 | -23.58912 | -46.65945 | 4653 ft | 212 kts | 54° |
| 2026-05-08 22:04 | -23.58533 | -46.64270 | 4800 ft | 243 kts | 91° |
| 2026-05-08 22:04 | -23.59017 | -46.62473 | 4925 ft | 253 kts | 117° |
| 2026-05-08 22:04 | -23.59976 | -46.60863 | 5072 ft | 254 kts | 118° |
| 2026-05-08 22:04 | -23.60558 | -46.59058 | 5140 ft | 255 kts | 99° |
| 2026-05-08 22:05 | -23.60999 | -46.57090 | 5378 ft | 282 kts | 101° |
| 2026-05-08 22:05 | -23.61840 | -46.55085 | 6108 ft | 301 kts | 128° |
| 2026-05-08 22:05 | -23.63311 | -46.53431 | 7073 ft | 306 kts | 135° |
| 2026-05-08 22:05 | -23.64843 | -46.51854 | 8023 ft | 309 kts | 135° |
| 2026-05-08 22:06 | -23.66408 | -46.50235 | 9003 ft | 312 kts | 135° |
| 2026-05-08 22:06 | -23.67981 | -46.48586 | 9984 ft | 315 kts | 135° |
| 2026-05-08 22:06 | -23.69577 | -46.46890 | 10630 ft | 329 kts | 132° |
| 2026-05-08 22:06 | -23.70827 | -46.44722 | 10966 ft | 346 kts | 105° |
| 2026-05-08 22:07 | -23.71135 | -46.42142 | 11700 ft | 344 kts | 82° |
| 2026-05-08 22:07 | -23.70831 | -46.39554 | 12527 ft | 345 kts | 77° |
| 2026-05-08 22:07 | -23.70436 | -46.36962 | 13337 ft | 350 kts | 76° |
| 2026-05-08 22:07 | -23.70020 | -46.34326 | 14111 ft | 354 kts | 76° |
| 2026-05-08 22:08 | -23.69608 | -46.31659 | 14857 ft | 358 kts | 77° |
| 2026-05-08 22:08 | -23.69210 | -46.28999 | 15588 ft | 362 kts | 77° |
| 2026-05-08 22:08 | -23.68811 | -46.26270 | 16334 ft | 366 kts | 77° |
| 2026-05-08 22:08 | -23.68414 | -46.23510 | 17066 ft | 371 kts | 77° |
| 2026-05-08 22:09 | -23.68014 | -46.20713 | 17758 ft | 376 kts | 77° |
| 2026-05-08 22:09 | -23.67608 | -46.17879 | 18437 ft | 380 kts | 77° |
| 2026-05-08 22:09 | -23.67197 | -46.15013 | 19020 ft | 385 kts | 77° |
| 2026-05-08 22:09 | -23.66640 | -46.12148 | 19560 ft | 387 kts | 66° |
| 2026-05-08 22:10 | -23.65552 | -46.09471 | 20160 ft | 387 kts | 59° |
| 2026-05-08 22:10 | -23.64334 | -46.06833 | 20752 ft | 392 kts | 58° |
| 2026-05-08 22:10 | -23.63076 | -46.04175 | 21342 ft | 397 kts | 58° |
| 2026-05-08 22:10 | -23.62664 | -46.03305 | 21517 ft | 399 kts | 58° |
| 2026-05-08 22:11 | -23.61908 | -46.01699 | 21852 ft | 401 kts | 58° |
| 2026-05-08 22:11 | -23.60635 | -45.98969 | 22424 ft | 406 kts | 59° |
| 2026-05-08 22:11 | -23.59359 | -45.96198 | 22979 ft | 411 kts | 59° |
| 2026-05-08 22:11 | -23.58075 | -45.93389 | 23516 ft | 416 kts | 59° |
| 2026-05-08 22:12 | -23.56783 | -45.90548 | 24002 ft | 420 kts | 59° |
| 2026-05-08 22:12 | -23.55483 | -45.87682 | 24501 ft | 424 kts | 59° |
| 2026-05-08 22:12 | -23.54173 | -45.84795 | 25023 ft | 426 kts | 59° |
| 2026-05-08 22:12 | -23.52872 | -45.81926 | 25524 ft | 429 kts | 59° |
| 2026-05-08 22:13 | -23.51541 | -45.78998 | 25976 ft | 434 kts | 59° |
| 2026-05-08 22:13 | -23.50196 | -45.76041 | 26452 ft | 437 kts | 59° |
| 2026-05-08 22:13 | -23.48842 | -45.73064 | 26928 ft | 440 kts | 59° |
| 2026-05-08 22:13 | -23.47476 | -45.70064 | 27394 ft | 444 kts | 59° |
| 2026-05-08 22:14 | -23.46098 | -45.67040 | 27842 ft | 447 kts | 59° |
| 2026-05-08 22:14 | -23.44709 | -45.63994 | 28276 ft | 451 kts | 59° |
| 2026-05-08 22:14 | -23.43310 | -45.60926 | 28721 ft | 454 kts | 59° |
| 2026-05-08 22:14 | -23.41900 | -45.57835 | 29133 ft | 458 kts | 59° |
| 2026-05-08 22:15 | -23.40496 | -45.54760 | 29525 ft | 461 kts | 59° |
| 2026-05-08 22:15 | -23.39074 | -45.51613 | 29932 ft | 466 kts | 63° |
| 2026-05-08 22:15 | -23.38069 | -45.48229 | 30277 ft | 474 kts | 73° |
| 2026-05-08 22:15 | -23.37354 | -45.44715 | 30631 ft | 477 kts | 76° |
| 2026-05-08 22:16 | -23.36686 | -45.41165 | 30954 ft | 480 kts | 76° |
| 2026-05-08 22:16 | -23.35990 | -45.37601 | 31280 ft | 483 kts | 75° |
| 2026-05-08 22:16 | -23.35245 | -45.34027 | 31602 ft | 486 kts | 75° |
| 2026-05-08 22:16 | -23.34472 | -45.30441 | 31904 ft | 488 kts | 75° |
| 2026-05-08 22:17 | -23.33702 | -45.26886 | 32201 ft | 491 kts | 75° |
| 2026-05-08 22:17 | -23.32919 | -45.23260 | 32462 ft | 494 kts | 75° |
| 2026-05-08 22:17 | -23.32133 | -45.19610 | 32798 ft | 495 kts | 75° |
| 2026-05-08 22:17 | -23.31351 | -45.15973 | 33284 ft | 492 kts | 75° |
| 2026-05-08 22:18 | -23.30572 | -45.12353 | 33689 ft | 492 kts | 76° |
| 2026-05-08 22:18 | -23.29791 | -45.08730 | 34014 ft | 493 kts | 76° |
| 2026-05-08 22:18 | -23.29007 | -45.05098 | 34301 ft | 493 kts | 76° |
| 2026-05-08 22:18 | -23.28224 | -45.01471 | 34641 ft | 492 kts | 76° |
| 2026-05-08 22:19 | -23.27441 | -44.97852 | 34998 ft | 491 kts | 76° |
| 2026-05-08 22:19 | -23.26659 | -44.94245 | 35280 ft | 490 kts | 76° |
| 2026-05-08 22:19 | -23.25887 | -44.90682 | 35440 ft | 492 kts | 76° |
| 2026-05-08 22:19 | -23.25101 | -44.87064 | 35780 ft | 490 kts | 76° |
| 2026-05-08 22:20 | -23.24320 | -44.83470 | 36151 ft | 488 kts | 76° |
| 2026-05-08 22:20 | -23.23539 | -44.79884 | 36463 ft | 487 kts | 76° |
| 2026-05-08 22:20 | -23.22758 | -44.76298 | 36717 ft | 488 kts | 76° |
| 2026-05-08 22:20 | -23.21979 | -44.72729 | 36939 ft | 488 kts | 76° |
| 2026-05-08 22:21 | -23.21196 | -44.69140 | 37202 ft | 488 kts | 76° |
| 2026-05-08 22:21 | -23.20411 | -44.65549 | 37489 ft | 487 kts | 77° |
| 2026-05-08 22:21 | -23.19639 | -44.62020 | 37772 ft | 486 kts | 76° |
| 2026-05-08 22:21 | -23.18857 | -44.58453 | 38031 ft | 486 kts | 77° |
| 2026-05-08 22:22 | -23.18071 | -44.54875 | 38209 ft | 487 kts | 77° |
| 2026-05-08 22:22 | -23.17284 | -44.51298 | 38422 ft | 487 kts | 77° |
| 2026-05-08 22:22 | -23.16495 | -44.47716 | 38682 ft | 486 kts | 77° |
| 2026-05-08 22:22 | -23.15709 | -44.44149 | 38901 ft | 485 kts | 77° |
| 2026-05-08 22:23 | -23.14921 | -44.40574 | 38977 ft | 488 kts | 77° |
| 2026-05-08 22:23 | -23.13333 | -44.33384 | 38980 ft | 496 kts | 77° |
| 2026-05-08 22:24 | -23.11707 | -44.26040 | 38977 ft | 504 kts | 77° |
| 2026-05-08 22:24 | -23.10059 | -44.18612 | 38972 ft | 507 kts | 77° |
| 2026-05-08 22:25 | -23.08403 | -44.11164 | 38972 ft | 507 kts | 77° |
| 2026-05-08 22:25 | -23.06744 | -44.03721 | 38964 ft | 507 kts | 77° |
| 2026-05-08 22:26 | -23.05093 | -43.96333 | 38961 ft | 506 kts | 77° |
| 2026-05-08 22:26 | -23.03431 | -43.88913 | 38951 ft | 505 kts | 77° |
| 2026-05-08 22:27 | -23.01769 | -43.81505 | 38942 ft | 505 kts | 77° |
| 2026-05-08 22:27 | -23.00107 | -43.74114 | 38939 ft | 504 kts | 77° |
| 2026-05-08 22:28 | -22.98433 | -43.68073 | 38936 ft | 504 kts | 68° |
| 2026-05-08 22:28 | -22.95288 | -43.60175 | 38938 ft | 503 kts | 66° |
| 2026-05-08 22:29 | -22.92543 | -43.53410 | 38949 ft | 503 kts | 67° |
| 2026-05-08 22:29 | -22.89776 | -43.46438 | 38935 ft | 503 kts | 67° |
| 2026-05-08 22:30 | -22.87032 | -43.39468 | 38944 ft | 502 kts | 67° |
| 2026-05-08 22:30 | -22.84747 | -43.33679 | 38939 ft | 502 kts | 67° |
| 2026-05-08 22:31 | -22.81978 | -43.26731 | 38937 ft | 502 kts | 65° |
| 2026-05-08 22:31 | -22.77771 | -43.19229 | 38936 ft | 502 kts | 56° |
| 2026-05-08 22:32 | -22.74520 | -43.14025 | 38949 ft | 501 kts | 56° |
| 2026-05-08 22:32 | -22.70632 | -43.07758 | 38961 ft | 501 kts | 56° |
| 2026-05-08 22:33 | -22.66160 | -43.00440 | 38989 ft | 501 kts | 57° |
| 2026-05-08 22:33 | -22.62947 | -42.95160 | 39008 ft | 501 kts | 57° |
| 2026-05-08 22:34 | -22.59134 | -42.88902 | 39024 ft | 501 kts | 57° |
| 2026-05-08 22:34 | -22.55289 | -42.82605 | 39035 ft | 501 kts | 57° |
| 2026-05-08 22:35 | -22.50819 | -42.75296 | 39046 ft | 502 kts | 57° |
| 2026-05-08 22:35 | -22.47591 | -42.70024 | 39047 ft | 502 kts | 57° |
| 2026-05-08 22:36 | -22.43761 | -42.63776 | 39062 ft | 503 kts | 57° |
| 2026-05-08 22:36 | -22.39894 | -42.57475 | 39063 ft | 503 kts | 57° |
| 2026-05-08 22:37 | -22.36023 | -42.51173 | 39059 ft | 503 kts | 57° |
| 2026-05-08 22:37 | -22.32154 | -42.44879 | 39071 ft | 504 kts | 57° |
| 2026-05-08 22:38 | -22.28251 | -42.38660 | 39056 ft | 504 kts | 55° |
| 2026-05-08 22:38 | -22.24029 | -42.32610 | 39072 ft | 504 kts | 53° |
| 2026-05-08 22:39 | -22.19728 | -42.26621 | 39062 ft | 505 kts | 53° |
| 2026-05-08 22:39 | -22.15455 | -42.20620 | 39057 ft | 504 kts | 53° |
| 2026-05-08 22:40 | -22.11234 | -42.14645 | 39074 ft | 504 kts | 54° |
| 2026-05-08 22:40 | -22.07002 | -42.08644 | 39064 ft | 505 kts | 54° |
| 2026-05-08 22:41 | -22.02745 | -42.02618 | 39056 ft | 505 kts | 54° |
| 2026-05-08 22:41 | -21.98483 | -41.96595 | 39057 ft | 506 kts | 54° |
| 2026-05-08 22:42 | -21.94245 | -41.90615 | 39061 ft | 506 kts | 54° |
| 2026-05-08 22:42 | -21.89967 | -41.84584 | 39054 ft | 506 kts | 54° |
| 2026-05-08 22:43 | -21.85690 | -41.78560 | 39056 ft | 506 kts | 54° |
| 2026-05-08 22:43 | -21.81410 | -41.72540 | 39048 ft | 506 kts | 54° |
| 2026-05-08 22:44 | -21.77155 | -41.66561 | 39051 ft | 506 kts | 54° |
| 2026-05-08 22:44 | -21.75006 | -41.63543 | 38597 ft | 514 kts | 54° |
| 2026-05-08 22:44 | -21.72822 | -41.60475 | 37823 ft | 515 kts | 54° |
| 2026-05-08 22:44 | -21.70650 | -41.57430 | 37203 ft | 511 kts | 54° |
| 2026-05-08 22:45 | -21.68488 | -41.54401 | 36488 ft | 510 kts | 54° |
| 2026-05-08 22:45 | -21.66332 | -41.51381 | 35772 ft | 508 kts | 54° |
| 2026-05-08 22:45 | -21.64179 | -41.48366 | 34985 ft | 509 kts | 54° |
| 2026-05-08 22:45 | -21.62023 | -41.45349 | 34173 ft | 509 kts | 54° |
| 2026-05-08 22:46 | -21.59865 | -41.42330 | 33251 ft | 509 kts | 54° |
| 2026-05-08 22:46 | -21.57707 | -41.39312 | 32307 ft | 510 kts | 54° |
| 2026-05-08 22:46 | -21.55575 | -41.36333 | 31380 ft | 510 kts | 54° |
| 2026-05-08 22:46 | -21.53413 | -41.33312 | 30463 ft | 510 kts | 54° |
| 2026-05-08 22:47 | -21.51257 | -41.30304 | 29694 ft | 506 kts | 54° |
| 2026-05-08 22:47 | -21.49068 | -41.27380 | 28991 ft | 500 kts | 48° |
| 2026-05-08 22:47 | -21.46515 | -41.24921 | 28758 ft | 486 kts | 40° |
| 2026-05-08 22:47 | -21.43899 | -41.22688 | 28284 ft | 477 kts | 39° |
| 2026-05-08 22:48 | -21.41294 | -41.20503 | 27595 ft | 473 kts | 39° |
| 2026-05-08 22:48 | -21.38732 | -41.18322 | 26909 ft | 468 kts | 40° |
| 2026-05-08 22:48 | -21.36218 | -41.16133 | 26235 ft | 464 kts | 40° |
| 2026-05-08 22:48 | -21.33737 | -41.13944 | 25569 ft | 459 kts | 40° |
| 2026-05-08 22:49 | -21.31314 | -41.11801 | 24907 ft | 455 kts | 40° |
| 2026-05-08 22:49 | -21.26525 | -41.07581 | 23901 ft | 440 kts | 40° |
| 2026-05-08 22:49 | -21.24169 | -41.05511 | 23202 ft | 437 kts | 40° |
| 2026-05-08 22:50 | -21.21829 | -41.03455 | 22466 ft | 433 kts | 40° |
| 2026-05-08 22:50 | -21.19511 | -41.01419 | 21782 ft | 428 kts | 40° |
| 2026-05-08 22:50 | -21.17224 | -40.99410 | 21106 ft | 423 kts | 40° |
| 2026-05-08 22:50 | -21.14961 | -40.97422 | 20443 ft | 418 kts | 40° |
| 2026-05-08 22:51 | -21.12724 | -40.95458 | 19788 ft | 413 kts | 39° |
| 2026-05-08 22:51 | -21.10546 | -40.93546 | 19153 ft | 409 kts | 39° |
| 2026-05-08 22:51 | -21.08358 | -40.91626 | 18495 ft | 404 kts | 39° |
| 2026-05-08 22:51 | -21.06194 | -40.89730 | 17800 ft | 400 kts | 39° |
| 2026-05-08 22:52 | -21.04086 | -40.87883 | 17481 ft | 385 kts | 39° |
| 2026-05-08 22:52 | -21.02022 | -40.86075 | 16847 ft | 380 kts | 39° |
| 2026-05-08 22:52 | -20.99986 | -40.84292 | 16201 ft | 377 kts | 39° |
| 2026-05-08 22:52 | -20.97969 | -40.82526 | 15580 ft | 373 kts | 39° |
| 2026-05-08 22:53 | -20.95972 | -40.80778 | 14967 ft | 369 kts | 39° |
| 2026-05-08 22:53 | -20.93990 | -40.79044 | 14354 ft | 366 kts | 39° |
| 2026-05-08 22:53 | -20.92054 | -40.77350 | 13718 ft | 364 kts | 39° |
| 2026-05-08 22:53 | -20.90104 | -40.75644 | 13048 ft | 361 kts | 39° |
| 2026-05-08 22:54 | -20.88169 | -40.73952 | 12407 ft | 357 kts | 39° |
| 2026-05-08 22:54 | -20.86257 | -40.72281 | 11789 ft | 353 kts | 39° |
| 2026-05-08 22:54 | -20.84366 | -40.70628 | 11183 ft | 350 kts | 38° |
| 2026-05-08 22:54 | -20.82495 | -40.68994 | 10736 ft | 342 kts | 38° |
| 2026-05-08 22:55 | -20.80695 | -40.67428 | 10585 ft | 326 kts | 37° |
| 2026-05-08 22:55 | -20.78913 | -40.66021 | 10449 ft | 311 kts | 34° |
| 2026-05-08 22:55 | -20.77190 | -40.64755 | 10322 ft | 298 kts | 33° |
| 2026-05-08 22:55 | -20.75507 | -40.63537 | 10200 ft | 286 kts | 33° |
| 2026-05-08 22:56 | -20.73897 | -40.62371 | 10087 ft | 274 kts | 34° |
| 2026-05-08 22:56 | -20.72334 | -40.61234 | 9752 ft | 272 kts | 34° |
| 2026-05-08 22:56 | -20.70783 | -40.60101 | 9420 ft | 269 kts | 34° |
| 2026-05-08 22:56 | -20.69247 | -40.58975 | 9066 ft | 267 kts | 34° |
| 2026-05-08 22:57 | -20.67725 | -40.57857 | 8725 ft | 265 kts | 34° |
| 2026-05-08 22:57 | -20.66212 | -40.56745 | 8387 ft | 263 kts | 34° |
| 2026-05-08 22:57 | -20.64710 | -40.55640 | 8046 ft | 261 kts | 34° |
| 2026-05-08 22:57 | -20.63219 | -40.54543 | 7708 ft | 259 kts | 34° |
| 2026-05-08 22:58 | -20.61761 | -40.53469 | 7389 ft | 258 kts | 34° |
| 2026-05-08 22:58 | -20.60286 | -40.52383 | 7069 ft | 257 kts | 34° |
| 2026-05-08 22:58 | -20.58809 | -40.51296 | 6699 ft | 258 kts | 36° |
| 2026-05-08 22:58 | -20.57351 | -40.50222 | 6445 ft | 254 kts | 34° |
| 2026-05-08 22:59 | -20.55916 | -40.49167 | 6381 ft | 248 kts | 34° |
| 2026-05-08 22:59 | -20.54524 | -40.48142 | 6304 ft | 237 kts | 35° |
| 2026-05-08 22:59 | -20.53200 | -40.47168 | 6235 ft | 223 kts | 35° |
| 2026-05-08 22:59 | -20.51974 | -40.46266 | 6180 ft | 204 kts | 35° |
| 2026-05-08 23:00 | -20.50859 | -40.45447 | 6012 ft | 190 kts | 35° |
| 2026-05-08 23:00 | -20.49822 | -40.44684 | 5756 ft | 180 kts | 35° |
| 2026-05-08 23:00 | -20.48800 | -40.43934 | 5364 ft | 178 kts | 35° |
| 2026-05-08 23:00 | -20.47779 | -40.43185 | 4938 ft | 178 kts | 34° |
| 2026-05-08 23:01 | -20.46739 | -40.42481 | 4541 ft | 176 kts | 32° |
| 2026-05-08 23:01 | -20.45696 | -40.41796 | 4108 ft | 177 kts | 32° |
| 2026-05-08 23:01 | -20.44649 | -40.41107 | 3712 ft | 176 kts | 31° |
| 2026-05-08 23:01 | -20.43613 | -40.40426 | 3366 ft | 172 kts | 32° |
| 2026-05-08 23:02 | -20.42656 | -40.39796 | 3210 ft | 158 kts | 31° |
| 2026-05-08 23:02 | -20.41735 | -40.39189 | 3070 ft | 154 kts | 31° |
| 2026-05-08 23:02 | -20.40818 | -40.38584 | 2934 ft | 156 kts | 31° |
| 2026-05-08 23:02 | -20.39885 | -40.37969 | 2813 ft | 160 kts | 32° |
| 2026-05-08 23:03 | -20.38939 | -40.37346 | 2667 ft | 160 kts | 31° |
| 2026-05-08 23:03 | -20.38003 | -40.36728 | 2500 ft | 156 kts | 31° |
| 2026-05-08 23:03 | -20.37110 | -40.36139 | 2374 ft | 148 kts | 31° |
| 2026-05-08 23:03 | -20.36249 | -40.35572 | 2250 ft | 143 kts | 31° |
| 2026-05-08 23:04 | -20.35452 | -40.35047 | 2139 ft | 132 kts | 31° |
| 2026-05-08 23:04 | -20.34665 | -40.34529 | 2004 ft | 133 kts | 31° |
| 2026-05-08 23:04 | -20.33903 | -40.34014 | 1840 ft | 127 kts | 32° |
| 2026-05-08 23:04 | -20.33141 | -40.33485 | 1667 ft | 131 kts | 32° |
| 2026-05-08 23:05 | -20.32393 | -40.32972 | 1477 ft | 131 kts | 30° |
| 2026-05-08 23:05 | -20.31590 | -40.32493 | 1376 ft | 132 kts | 30° |
| 2026-05-08 23:05 | -20.30797 | -40.31998 | 1244 ft | 133 kts | 31° |
| 2026-05-08 23:05 | -20.30010 | -40.31472 | 1097 ft | 132 kts | 33° |
| 2026-05-08 23:06 | -20.29224 | -40.30949 | 869 ft | 135 kts | 31° |
| 2026-05-08 23:06 | -20.28418 | -40.30416 | 647 ft | 137 kts | 30° |
| 2026-05-08 23:06 | -20.27631 | -40.29903 | 404 ft | 132 kts | 32° |
| 2026-05-08 23:06 | -20.26864 | -40.29386 | 189 ft | 128 kts | 32° |
| 2026-05-08 23:07 | -20.26119 | -40.28897 | 24 ft | 118 kts | 32° |
| 2026-05-08 23:07 | -20.25584 | -40.28545 | 17 ft | 60 kts | 31° |
| 2026-05-08 23:07 | -20.25396 | -40.28422 | 21 ft | 20 kts | 31° |
| 2026-05-08 23:07 | -20.25287 | -40.28350 | 22 ft | 18 kts | 31° |
| 2026-05-08 23:08 | -20.25190 | -40.28277 | 23 ft | 14 kts | 62° |
| 2026-05-08 23:08 | -20.25252 | -40.28225 | 24 ft | 13 kts | 172° |
| 2026-05-08 23:08 | -20.25342 | -40.28211 | 29 ft | 13 kts | 171° |
| 2026-05-08 23:08 | -20.25435 | -40.28196 | 29 ft | 15 kts | 173° |
| 2026-05-08 23:09 | -20.25553 | -40.28180 | 32 ft | 19 kts | 172° |
| 2026-05-08 23:09 | -20.25678 | -40.28160 | 34 ft | 18 kts | 171° |
| 2026-05-08 23:09 | -20.25799 | -40.28142 | 35 ft | 17 kts | 171° |
| 2026-05-08 23:09 | -20.25917 | -40.28123 | 36 ft | 19 kts | 173° |
| 2026-05-08 23:10 | -20.26080 | -40.28102 | 34 ft | 24 kts | 173° |
| 2026-05-08 23:10 | -20.26238 | -40.28079 | 35 ft | 22 kts | 172° |
| 2026-05-08 23:10 | -20.26370 | -40.28058 | 36 ft | 18 kts | 172° |
| 2026-05-08 23:10 | -20.26454 | -40.28116 | 34 ft | 17 kts | 264° |
| 2026-05-08 23:11 | -20.26462 | -40.28184 | 26 ft | 2 kts | 262° |
| 2026-05-08 23:11 | -20.26462 | -40.28188 | 26 ft | 0 kts | 262° |